This is the latest recevied weather packets stored in our database for station/object WX9WTF. If no packets are shown the sender has not sent any weather packets the latest 10 day(s).
| Time | Temp. | Humidity | Pressure | Rain* | Wind** | Luminosity | Snow |
|---|---|---|---|---|---|---|---|
| 1778108230 | 16.11° C | 36% | 1017.7 hPa | 0 mm | - | 282 W/m² | - |
| 1778107927 | 16.11° C | 35% | 1017.6 hPa | 0 mm | - | 303 W/m² | - |
| 1778107623 | 16.11° C | 37% | 1017.7 hPa | 0 mm | - | 325 W/m² | - |
| 1778107321 | 16.11° C | 35% | 1017.7 hPa | 0 mm | - | 347 W/m² | - |
| 1778107017 | 16.67° C | 36% | 1017.6 hPa | 0 mm | - | 366 W/m² | - |
| 1778106713 | 16.11° C | 38% | 1017.8 hPa | 0 mm | - | 381 W/m² | - |
| 1778106410 | 16.11° C | 35% | 1017.4 hPa | 0 mm | - | 392 W/m² | - |
| 1778106105 | 16.11° C | 36% | 1017.7 hPa | 0 mm | - | 425 W/m² | - |
| 1778105804 | 15.56° C | 36% | 1017.6 hPa | 0 mm | - | 427 W/m² | - |
| 1778105502 | 16.11° C | 37% | 1017.9 hPa | 0 mm | - | 448 W/m² | - |
| 1778105198 | 16.11° C | 35% | 1017.8 hPa | 0 mm | - | 459 W/m² | - |
| 1778104893 | 16.11° C | 34% | 1017.7 hPa | 0 mm | - | 475 W/m² | - |
| 1778104590 | 16.11° C | 36% | 1017.8 hPa | 0 mm | - | 516 W/m² | - |
| 1778104285 | 16.11° C | 35% | 1018.1 hPa | 0 mm | - | 518 W/m² | - |
| 1778103982 | 15.56° C | 34% | 1017.9 hPa | 0 mm | - | 523 W/m² | - |
| 1778103679 | 15.56° C | 39% | 1018.2 hPa | 0 mm | - | 533 W/m² | - |
| 1778103378 | 16.11° C | 36% | 1018.4 hPa | 0 mm | - | 544 W/m² | - |
| 1778103074 | 15.56° C | 35% | 1018.2 hPa | 0 mm | - | 555 W/m² | - |
| 1778102772 | 15.56° C | 35% | 1018.3 hPa | 0 mm | - | 569 W/m² | - |
| 1778102467 | 16.11° C | 33% | 1018.1 hPa | 0 mm | - | 583 W/m² | - |
| 1778102163 | 15.56° C | 36% | 1018.4 hPa | 0 mm | - | 596 W/m² | - |
| 1778101860 | 15.56° C | 36% | 1018.3 hPa | 0 mm | - | 610 W/m² | - |
| 1778101557 | 15.56° C | 36% | 1018.2 hPa | 0 mm | - | 624 W/m² | - |
| 1778101253 | 15.56° C | 36% | 1018.5 hPa | 0 mm | - | 637 W/m² | - |
| 1778100950 | 15° C | 36% | 1018.6 hPa | 0 mm | - | 651 W/m² | - |
* Rain latest hour (hover to see other rain measurements)
** Current wind speed in m/s (hover to see current wind gust speed)